sensor_id;sensor_type;location;lat;lon;timestamp;P1;durP1;ratioP1;P2;durP2;ratioP2
60973;SDS011;46846;51.528;5.076;2024-01-30T00:01:53;92.53;;;86.90;;
60973;SDS011;46846;51.528;5.076;2024-01-30T00:04:19;87.00;;;81.18;;
60973;SDS011;46846;51.528;5.076;2024-01-30T00:06:45;84.07;;;78.35;;
60973;SDS011;46846;51.528;5.076;2024-01-30T00:09:10;84.47;;;79.35;;
60973;SDS011;46846;51.528;5.076;2024-01-30T00:11:36;79.75;;;74.45;;
60973;SDS011;46846;51.528;5.076;2024-01-30T00:14:02;82.45;;;77.18;;
60973;SDS011;46846;51.528;5.076;2024-01-30T00:16:28;85.72;;;80.40;;
60973;SDS011;46846;51.528;5.076;2024-01-30T00:18:54;81.90;;;76.88;;
60973;SDS011;46846;51.528;5.076;2024-01-30T00:21:20;80.57;;;75.38;;
60973;SDS011;46846;51.528;5.076;2024-01-30T00:23:46;90.40;;;84.25;;
60973;SDS011;46846;51.528;5.076;2024-01-30T00:26:12;87.80;;;82.25;;
60973;SDS011;46846;51.528;5.076;2024-01-30T00:28:37;82.88;;;77.65;;
60973;SDS011;46846;51.528;5.076;2024-01-30T00:33:29;78.82;;;73.80;;
60973;SDS011;46846;51.528;5.076;2024-01-30T00:35:55;81.53;;;75.93;;
60973;SDS011;46846;51.528;5.076;2024-01-30T00:38:20;83.93;;;78.78;;
60973;SDS011;46846;51.528;5.076;2024-01-30T00:40:45;82.68;;;77.43;;
60973;SDS011;46846;51.528;5.076;2024-01-30T00:43:11;81.40;;;76.50;;
60973;SDS011;46846;51.528;5.076;2024-01-30T00:45:36;80.70;;;75.35;;
60973;SDS011;46846;51.528;5.076;2024-01-30T00:48:02;80.07;;;75.15;;
60973;SDS011;46846;51.528;5.076;2024-01-30T00:52:52;71.30;;;66.80;;
60973;SDS011;46846;51.528;5.076;2024-01-30T00:55:18;87.30;;;81.78;;
60973;SDS011;46846;51.528;5.076;2024-01-30T00:57:43;82.72;;;77.53;;
60973;SDS011;46846;51.528;5.076;2024-01-30T01:00:09;86.38;;;80.22;;
60973;SDS011;46846;51.528;5.076;2024-01-30T01:02:35;79.93;;;74.93;;
60973;SDS011;46846;51.528;5.076;2024-01-30T01:07:26;73.93;;;68.85;;
60973;SDS011;46846;51.528;5.076;2024-01-30T01:09:51;81.80;;;76.38;;
60973;SDS011;46846;51.528;5.076;2024-01-30T01:12:17;73.90;;;69.30;;
60973;SDS011;46846;51.528;5.076;2024-01-30T01:14:42;79.38;;;74.22;;
60973;SDS011;46846;51.528;5.076;2024-01-30T01:17:07;84.73;;;79.37;;
60973;SDS011;46846;51.528;5.076;2024-01-30T01:19:33;78.93;;;74.03;;
60973;SDS011;46846;51.528;5.076;2024-01-30T01:21:58;83.80;;;78.53;;
60973;SDS011;46846;51.528;5.076;2024-01-30T01:24:24;82.60;;;77.50;;
60973;SDS011;46846;51.528;5.076;2024-01-30T01:26:49;84.35;;;78.82;;
60973;SDS011;46846;51.528;5.076;2024-01-30T01:29:15;86.57;;;80.32;;
60973;SDS011;46846;51.528;5.076;2024-01-30T01:31:41;87.75;;;82.47;;
60973;SDS011;46846;51.528;5.076;2024-01-30T01:34:09;79.57;;;74.60;;
60973;SDS011;46846;51.528;5.076;2024-01-30T01:36:35;86.93;;;81.35;;
60973;SDS011;46846;51.528;5.076;2024-01-30T01:39:01;84.78;;;79.57;;
60973;SDS011;46846;51.528;5.076;2024-01-30T01:41:31;86.07;;;80.30;;
60973;SDS011;46846;51.528;5.076;2024-01-30T01:43:57;78.90;;;73.65;;
60973;SDS011;46846;51.528;5.076;2024-01-30T01:46:22;81.55;;;76.68;;
60973;SDS011;46846;51.528;5.076;2024-01-30T01:48:48;82.68;;;77.43;;
60973;SDS011;46846;51.528;5.076;2024-01-30T01:53:40;79.93;;;74.57;;
60973;SDS011;46846;51.528;5.076;2024-01-30T01:56:06;75.30;;;70.68;;
60973;SDS011;46846;51.528;5.076;2024-01-30T01:58:32;79.95;;;74.93;;
60973;SDS011;46846;51.528;5.076;2024-01-30T02:00:58;82.43;;;76.68;;
60973;SDS011;46846;51.528;5.076;2024-01-30T02:03:24;88.72;;;83.25;;
60973;SDS011;46846;51.528;5.076;2024-01-30T02:05:52;83.40;;;78.22;;
60973;SDS011;46846;51.528;5.076;2024-01-30T02:08:19;77.10;;;72.22;;
60973;SDS011;46846;51.528;5.076;2024-01-30T02:10:45;82.60;;;76.60;;
60973;SDS011;46846;51.528;5.076;2024-01-30T02:13:10;81.70;;;76.30;;
60973;SDS011;46846;51.528;5.076;2024-01-30T02:15:36;82.07;;;76.60;;
60973;SDS011;46846;51.528;5.076;2024-01-30T02:18:01;79.43;;;74.50;;
60973;SDS011;46846;51.528;5.076;2024-01-30T02:20:26;82.95;;;77.57;;
60973;SDS011;46846;51.528;5.076;2024-01-30T02:22:56;83.50;;;78.32;;
60973;SDS011;46846;51.528;5.076;2024-01-30T02:25:39;79.00;;;73.88;;
60973;SDS011;46846;51.528;5.076;2024-01-30T02:28:11;86.00;;;80.45;;
60973;SDS011;46846;51.528;5.076;2024-01-30T02:30:38;81.55;;;76.50;;
60973;SDS011;46846;51.528;5.076;2024-01-30T02:33:13;87.00;;;81.03;;
60973;SDS011;46846;51.528;5.076;2024-01-30T02:38:04;75.60;;;70.72;;
60973;SDS011;46846;51.528;5.076;2024-01-30T02:40:30;82.20;;;76.95;;
60973;SDS011;46846;51.528;5.076;2024-01-30T02:45:21;76.90;;;71.50;;
60973;SDS011;46846;51.528;5.076;2024-01-30T02:47:47;75.82;;;71.18;;
60973;SDS011;46846;51.528;5.076;2024-01-30T02:50:12;83.90;;;78.70;;
60973;SDS011;46846;51.528;5.076;2024-01-30T02:52:38;76.00;;;71.00;;
60973;SDS011;46846;51.528;5.076;2024-01-30T02:57:29;72.37;;;67.67;;
60973;SDS011;46846;51.528;5.076;2024-01-30T02:59:54;76.70;;;71.65;;
60973;SDS011;46846;51.528;5.076;2024-01-30T03:02:20;73.70;;;68.95;;
60973;SDS011;46846;51.528;5.076;2024-01-30T03:07:11;76.57;;;71.60;;
60973;SDS011;46846;51.528;5.076;2024-01-30T03:09:36;84.05;;;78.75;;
60973;SDS011;46846;51.528;5.076;2024-01-30T03:16:54;65.57;;;61.45;;
60973;SDS011;46846;51.528;5.076;2024-01-30T03:19:20;76.73;;;71.83;;
60973;SDS011;46846;51.528;5.076;2024-01-30T03:21:45;77.85;;;73.05;;
60973;SDS011;46846;51.528;5.076;2024-01-30T03:24:10;77.72;;;72.97;;
60973;SDS011;46846;51.528;5.076;2024-01-30T03:26:36;80.85;;;75.47;;
60973;SDS011;46846;51.528;5.076;2024-01-30T03:29:01;82.00;;;76.53;;
60973;SDS011;46846;51.528;5.076;2024-01-30T03:33:52;73.90;;;69.27;;
60973;SDS011;46846;51.528;5.076;2024-01-30T03:36:17;75.78;;;71.05;;
60973;SDS011;46846;51.528;5.076;2024-01-30T03:38:43;83.43;;;77.95;;
60973;SDS011;46846;51.528;5.076;2024-01-30T03:41:08;81.22;;;76.20;;
60973;SDS011;46846;51.528;5.076;2024-01-30T03:43:34;73.55;;;69.00;;
60973;SDS011;46846;51.528;5.076;2024-01-30T03:46:01;80.90;;;74.57;;
60973;SDS011;46846;51.528;5.076;2024-01-30T03:48:27;76.13;;;71.20;;
60973;SDS011;46846;51.528;5.076;2024-01-30T03:50:52;75.97;;;70.90;;
60973;SDS011;46846;51.528;5.076;2024-01-30T03:53:18;81.80;;;76.47;;
60973;SDS011;46846;51.528;5.076;2024-01-30T03:55:43;76.72;;;71.78;;
60973;SDS011;46846;51.528;5.076;2024-01-30T03:58:08;86.80;;;81.50;;
60973;SDS011;46846;51.528;5.076;2024-01-30T04:00:34;79.43;;;74.53;;
60973;SDS011;46846;51.528;5.076;2024-01-30T04:05:25;72.95;;;68.25;;
60973;SDS011;46846;51.528;5.076;2024-01-30T04:07:50;74.30;;;69.78;;
60973;SDS011;46846;51.528;5.076;2024-01-30T04:10:16;83.37;;;78.17;;
60973;SDS011;46846;51.528;5.076;2024-01-30T04:12:41;81.25;;;76.20;;
60973;SDS011;46846;51.528;5.076;2024-01-30T04:15:07;86.40;;;81.28;;
60973;SDS011;46846;51.528;5.076;2024-01-30T04:19:58;70.03;;;65.72;;
60973;SDS011;46846;51.528;5.076;2024-01-30T04:22:24;82.30;;;76.55;;
60973;SDS011;46846;51.528;5.076;2024-01-30T04:24:49;76.13;;;71.45;;
60973;SDS011;46846;51.528;5.076;2024-01-30T04:27:15;79.30;;;74.45;;
60973;SDS011;46846;51.528;5.076;2024-01-30T04:29:40;81.40;;;75.95;;
60973;SDS011;46846;51.528;5.076;2024-01-30T04:34:31;73.30;;;68.60;;
60973;SDS011;46846;51.528;5.076;2024-01-30T04:36:56;76.57;;;71.68;;
60973;SDS011;46846;51.528;5.076;2024-01-30T04:39:22;79.07;;;74.00;;
60973;SDS011;46846;51.528;5.076;2024-01-30T04:41:47;83.35;;;77.63;;
60973;SDS011;46846;51.528;5.076;2024-01-30T04:46:38;75.57;;;70.85;;
60973;SDS011;46846;51.528;5.076;2024-01-30T04:49:04;85.50;;;80.28;;
60973;SDS011;46846;51.528;5.076;2024-01-30T04:51:29;79.53;;;74.43;;
60973;SDS011;46846;51.528;5.076;2024-01-30T04:53:55;79.32;;;74.40;;
60973;SDS011;46846;51.528;5.076;2024-01-30T04:56:20;80.18;;;75.15;;
60973;SDS011;46846;51.528;5.076;2024-01-30T04:58:46;88.22;;;81.88;;
60973;SDS011;46846;51.528;5.076;2024-01-30T05:01:14;81.13;;;76.25;;
60973;SDS011;46846;51.528;5.076;2024-01-30T05:03:43;84.85;;;79.60;;
60973;SDS011;46846;51.528;5.076;2024-01-30T05:06:08;78.05;;;73.43;;
60973;SDS011;46846;51.528;5.076;2024-01-30T05:08:34;88.68;;;83.45;;
60973;SDS011;46846;51.528;5.076;2024-01-30T05:11:03;78.20;;;73.38;;
60973;SDS011;46846;51.528;5.076;2024-01-30T05:13:30;85.55;;;80.13;;
60973;SDS011;46846;51.528;5.076;2024-01-30T05:18:21;79.40;;;74.30;;
60973;SDS011;46846;51.528;5.076;2024-01-30T05:20:46;79.55;;;74.53;;
60973;SDS011;46846;51.528;5.076;2024-01-30T05:23:12;80.07;;;74.30;;
60973;SDS011;46846;51.528;5.076;2024-01-30T05:25:37;82.72;;;77.07;;
60973;SDS011;46846;51.528;5.076;2024-01-30T05:28:03;77.43;;;72.63;;
60973;SDS011;46846;51.528;5.076;2024-01-30T05:30:28;77.38;;;72.30;;
60973;SDS011;46846;51.528;5.076;2024-01-30T05:32:54;81.63;;;76.72;;
60973;SDS011;46846;51.528;5.076;2024-01-30T05:35:19;75.47;;;70.28;;
60973;SDS011;46846;51.528;5.076;2024-01-30T05:37:47;73.55;;;68.95;;
60973;SDS011;46846;51.528;5.076;2024-01-30T05:40:16;89.60;;;83.38;;
60973;SDS011;46846;51.528;5.076;2024-01-30T05:42:41;84.72;;;79.32;;
60973;SDS011;46846;51.528;5.076;2024-01-30T05:45:07;86.97;;;81.72;;
60973;SDS011;46846;51.528;5.076;2024-01-30T05:47:34;79.57;;;74.05;;
60973;SDS011;46846;51.528;5.076;2024-01-30T05:49:59;80.65;;;75.18;;
60973;SDS011;46846;51.528;5.076;2024-01-30T05:52:25;77.82;;;73.13;;
60973;SDS011;46846;51.528;5.076;2024-01-30T05:54:50;76.88;;;72.25;;
60973;SDS011;46846;51.528;5.076;2024-01-30T05:57:16;78.65;;;73.82;;
60973;SDS011;46846;51.528;5.076;2024-01-30T05:59:41;80.95;;;76.13;;
60973;SDS011;46846;51.528;5.076;2024-01-30T06:02:06;84.93;;;78.35;;
60973;SDS011;46846;51.528;5.076;2024-01-30T06:04:32;76.55;;;71.85;;
60973;SDS011;46846;51.528;5.076;2024-01-30T06:09:22;79.43;;;74.40;;
60973;SDS011;46846;51.528;5.076;2024-01-30T06:14:13;78.17;;;73.37;;
60973;SDS011;46846;51.528;5.076;2024-01-30T06:16:38;78.38;;;73.20;;
60973;SDS011;46846;51.528;5.076;2024-01-30T06:19:04;83.72;;;78.55;;
60973;SDS011;46846;51.528;5.076;2024-01-30T06:21:30;81.05;;;76.13;;
60973;SDS011;46846;51.528;5.076;2024-01-30T06:23:57;86.43;;;81.03;;
60973;SDS011;46846;51.528;5.076;2024-01-30T06:26:22;85.22;;;79.95;;
60973;SDS011;46846;51.528;5.076;2024-01-30T06:28:48;79.65;;;74.63;;
60973;SDS011;46846;51.528;5.076;2024-01-30T06:31:13;78.13;;;73.13;;
60973;SDS011;46846;51.528;5.076;2024-01-30T06:33:38;80.43;;;75.30;;
60973;SDS011;46846;51.528;5.076;2024-01-30T06:36:04;82.20;;;76.93;;
60973;SDS011;46846;51.528;5.076;2024-01-30T06:38:29;91.70;;;86.13;;
60973;SDS011;46846;51.528;5.076;2024-01-30T06:40:55;82.78;;;77.97;;
60973;SDS011;46846;51.528;5.076;2024-01-30T06:43:20;89.13;;;83.63;;
60973;SDS011;46846;51.528;5.076;2024-01-30T06:45:47;88.60;;;82.90;;
60973;SDS011;46846;51.528;5.076;2024-01-30T06:48:12;83.75;;;78.63;;
60973;SDS011;46846;51.528;5.076;2024-01-30T06:50:38;90.43;;;84.88;;
60973;SDS011;46846;51.528;5.076;2024-01-30T06:53:03;85.30;;;78.93;;
60973;SDS011;46846;51.528;5.076;2024-01-30T06:55:28;79.45;;;74.45;;
60973;SDS011;46846;51.528;5.076;2024-01-30T06:57:54;88.28;;;82.10;;
60973;SDS011;46846;51.528;5.076;2024-01-30T07:00:19;87.10;;;81.45;;
60973;SDS011;46846;51.528;5.076;2024-01-30T07:02:45;85.30;;;80.22;;
60973;SDS011;46846;51.528;5.076;2024-01-30T07:05:10;83.65;;;77.95;;
60973;SDS011;46846;51.528;5.076;2024-01-30T07:07:36;90.60;;;85.03;;
60973;SDS011;46846;51.528;5.076;2024-01-30T07:10:01;88.35;;;82.85;;
60973;SDS011;46846;51.528;5.076;2024-01-30T07:12:27;86.32;;;80.93;;
60973;SDS011;46846;51.528;5.076;2024-01-30T07:14:52;86.70;;;81.38;;
60973;SDS011;46846;51.528;5.076;2024-01-30T07:19:43;87.60;;;82.00;;
60973;SDS011;46846;51.528;5.076;2024-01-30T07:22:09;88.13;;;82.53;;
60973;SDS011;46846;51.528;5.076;2024-01-30T07:24:34;93.90;;;88.03;;
60973;SDS011;46846;51.528;5.076;2024-01-30T07:26:59;89.13;;;83.43;;
60973;SDS011;46846;51.528;5.076;2024-01-30T07:29:25;94.68;;;88.93;;
60973;SDS011;46846;51.528;5.076;2024-01-30T07:31:50;85.00;;;79.15;;
60973;SDS011;46846;51.528;5.076;2024-01-30T07:34:16;89.10;;;83.22;;
60973;SDS011;46846;51.528;5.076;2024-01-30T07:36:41;89.72;;;84.15;;
60973;SDS011;46846;51.528;5.076;2024-01-30T07:39:07;89.30;;;83.22;;
60973;SDS011;46846;51.528;5.076;2024-01-30T07:41:32;93.45;;;87.80;;
60973;SDS011;46846;51.528;5.076;2024-01-30T07:43:58;87.47;;;81.75;;
60973;SDS011;46846;51.528;5.076;2024-01-30T07:46:23;90.50;;;84.88;;
60973;SDS011;46846;51.528;5.076;2024-01-30T07:48:48;93.20;;;86.55;;
60973;SDS011;46846;51.528;5.076;2024-01-30T07:53:39;82.77;;;77.53;;
60973;SDS011;46846;51.528;5.076;2024-01-30T07:56:07;81.40;;;76.30;;
60973;SDS011;46846;51.528;5.076;2024-01-30T07:58:33;82.43;;;77.33;;
60973;SDS011;46846;51.528;5.076;2024-01-30T08:00:58;87.53;;;82.28;;
60973;SDS011;46846;51.528;5.076;2024-01-30T08:03:25;87.85;;;82.05;;
60973;SDS011;46846;51.528;5.076;2024-01-30T08:05:51;86.85;;;81.20;;
60973;SDS011;46846;51.528;5.076;2024-01-30T08:08:16;86.78;;;81.18;;
60973;SDS011;46846;51.528;5.076;2024-01-30T08:10:41;92.03;;;86.33;;
60973;SDS011;46846;51.528;5.076;2024-01-30T08:13:07;82.00;;;77.10;;
60973;SDS011;46846;51.528;5.076;2024-01-30T08:15:33;82.20;;;77.07;;
60973;SDS011;46846;51.528;5.076;2024-01-30T08:17:59;85.70;;;80.30;;
60973;SDS011;46846;51.528;5.076;2024-01-30T08:20:25;89.70;;;83.95;;
60973;SDS011;46846;51.528;5.076;2024-01-30T08:22:50;82.78;;;77.57;;
60973;SDS011;46846;51.528;5.076;2024-01-30T08:25:16;83.70;;;78.28;;
60973;SDS011;46846;51.528;5.076;2024-01-30T08:27:41;84.28;;;79.22;;
60973;SDS011;46846;51.528;5.076;2024-01-30T08:30:07;86.22;;;80.85;;
60973;SDS011;46846;51.528;5.076;2024-01-30T08:32:33;84.38;;;79.25;;
60973;SDS011;46846;51.528;5.076;2024-01-30T08:34:59;78.30;;;73.65;;
60973;SDS011;46846;51.528;5.076;2024-01-30T08:39:49;77.47;;;72.80;;
60973;SDS011;46846;51.528;5.076;2024-01-30T08:42:15;77.18;;;72.10;;
60973;SDS011;46846;51.528;5.076;2024-01-30T08:44:43;78.72;;;73.47;;
60973;SDS011;46846;51.528;5.076;2024-01-30T08:47:08;89.67;;;83.90;;
60973;SDS011;46846;51.528;5.076;2024-01-30T08:49:33;84.45;;;79.22;;
60973;SDS011;46846;51.528;5.076;2024-01-30T08:51:59;81.60;;;76.50;;
60973;SDS011;46846;51.528;5.076;2024-01-30T08:54:24;85.55;;;80.45;;
60973;SDS011;46846;51.528;5.076;2024-01-30T08:56:50;86.55;;;81.30;;
60973;SDS011;46846;51.528;5.076;2024-01-30T08:59:17;89.90;;;84.25;;
60973;SDS011;46846;51.528;5.076;2024-01-30T09:01:42;85.28;;;79.40;;
60973;SDS011;46846;51.528;5.076;2024-01-30T09:04:08;79.03;;;74.13;;
60973;SDS011;46846;51.528;5.076;2024-01-30T09:08:58;76.90;;;72.33;;
60973;SDS011;46846;51.528;5.076;2024-01-30T09:11:24;85.28;;;78.80;;
60973;SDS011;46846;51.528;5.076;2024-01-30T09:13:49;88.72;;;83.45;;
60973;SDS011;46846;51.528;5.076;2024-01-30T09:16:14;89.00;;;83.53;;
60973;SDS011;46846;51.528;5.076;2024-01-30T09:18:41;87.47;;;80.97;;
60973;SDS011;46846;51.528;5.076;2024-01-30T09:21:07;83.25;;;77.93;;
60973;SDS011;46846;51.528;5.076;2024-01-30T09:23:32;90.35;;;84.65;;
60973;SDS011;46846;51.528;5.076;2024-01-30T09:25:58;90.25;;;84.20;;
60973;SDS011;46846;51.528;5.076;2024-01-30T09:28:24;85.55;;;80.40;;
60973;SDS011;46846;51.528;5.076;2024-01-30T09:30:49;92.28;;;86.40;;
60973;SDS011;46846;51.528;5.076;2024-01-30T09:35:40;83.23;;;77.87;;
60973;SDS011;46846;51.528;5.076;2024-01-30T09:38:05;86.97;;;81.80;;
60973;SDS011;46846;51.528;5.076;2024-01-30T09:42:56;73.93;;;69.60;;
60973;SDS011;46846;51.528;5.076;2024-01-30T09:45:25;91.13;;;84.90;;
60973;SDS011;46846;51.528;5.076;2024-01-30T09:47:51;83.90;;;78.72;;
60973;SDS011;46846;51.528;5.076;2024-01-30T09:50:17;90.45;;;85.20;;
60973;SDS011;46846;51.528;5.076;2024-01-30T09:55:09;83.22;;;78.13;;
60973;SDS011;46846;51.528;5.076;2024-01-30T09:57:35;86.70;;;81.28;;
60973;SDS011;46846;51.528;5.076;2024-01-30T10:02:27;79.50;;;74.90;;
60973;SDS011;46846;51.528;5.076;2024-01-30T10:04:53;83.43;;;78.35;;
60973;SDS011;46846;51.528;5.076;2024-01-30T10:07:18;88.90;;;83.10;;
60973;SDS011;46846;51.528;5.076;2024-01-30T10:09:44;89.03;;;82.90;;
60973;SDS011;46846;51.528;5.076;2024-01-30T10:12:10;87.65;;;82.57;;
60973;SDS011;46846;51.528;5.076;2024-01-30T10:14:39;88.57;;;82.93;;
60973;SDS011;46846;51.528;5.076;2024-01-30T10:17:07;92.65;;;85.47;;
60973;SDS011;46846;51.528;5.076;2024-01-30T10:19:34;91.43;;;85.47;;
60973;SDS011;46846;51.528;5.076;2024-01-30T10:21:59;93.97;;;87.93;;
60973;SDS011;46846;51.528;5.076;2024-01-30T10:24:25;92.93;;;86.93;;
60973;SDS011;46846;51.528;5.076;2024-01-30T10:26:51;87.90;;;82.78;;
60973;SDS011;46846;51.528;5.076;2024-01-30T10:29:18;93.45;;;87.70;;
60973;SDS011;46846;51.528;5.076;2024-01-30T10:31:43;87.85;;;82.55;;
60973;SDS011;46846;51.528;5.076;2024-01-30T10:36:36;75.20;;;70.60;;
60973;SDS011;46846;51.528;5.076;2024-01-30T10:39:05;85.70;;;79.93;;
60973;SDS011;46846;51.528;5.076;2024-01-30T10:41:31;90.20;;;84.85;;
60973;SDS011;46846;51.528;5.076;2024-01-30T10:44:08;85.43;;;80.13;;
60973;SDS011;46846;51.528;5.076;2024-01-30T10:46:34;85.30;;;80.30;;
60973;SDS011;46846;51.528;5.076;2024-01-30T10:49:02;81.68;;;76.80;;
60973;SDS011;46846;51.528;5.076;2024-01-30T10:51:28;86.03;;;80.20;;
60973;SDS011;46846;51.528;5.076;2024-01-30T10:56:23;81.53;;;76.43;;
60973;SDS011;46846;51.528;5.076;2024-01-30T10:58:52;87.55;;;82.22;;
60973;SDS011;46846;51.528;5.076;2024-01-30T11:01:19;83.70;;;78.47;;
60973;SDS011;46846;51.528;5.076;2024-01-30T11:03:47;90.47;;;84.93;;
60973;SDS011;46846;51.528;5.076;2024-01-30T11:06:16;94.05;;;87.88;;
60973;SDS011;46846;51.528;5.076;2024-01-30T11:08:43;89.95;;;84.45;;
60973;SDS011;46846;51.528;5.076;2024-01-30T11:11:10;88.95;;;83.85;;
60973;SDS011;46846;51.528;5.076;2024-01-30T11:13:35;95.60;;;90.03;;
60973;SDS011;46846;51.528;5.076;2024-01-30T11:16:02;100.20;;;94.20;;
60973;SDS011;46846;51.528;5.076;2024-01-30T11:18:31;91.40;;;85.78;;
60973;SDS011;46846;51.528;5.076;2024-01-30T11:20:58;95.03;;;88.97;;
60973;SDS011;46846;51.528;5.076;2024-01-30T11:23:26;92.30;;;86.72;;
60973;SDS011;46846;51.528;5.076;2024-01-30T11:25:53;93.53;;;87.75;;
60973;SDS011;46846;51.528;5.076;2024-01-30T11:30:45;87.00;;;80.68;;
60973;SDS011;46846;51.528;5.076;2024-01-30T11:33:13;94.70;;;89.07;;
60973;SDS011;46846;51.528;5.076;2024-01-30T11:35:43;86.55;;;81.40;;
60973;SDS011;46846;51.528;5.076;2024-01-30T11:38:10;93.28;;;87.68;;
60973;SDS011;46846;51.528;5.076;2024-01-30T11:40:36;93.60;;;87.32;;
60973;SDS011;46846;51.528;5.076;2024-01-30T11:43:03;97.80;;;91.20;;
60973;SDS011;46846;51.528;5.076;2024-01-30T11:45:30;101.53;;;94.63;;
60973;SDS011;46846;51.528;5.076;2024-01-30T11:47:56;94.10;;;88.60;;
60973;SDS011;46846;51.528;5.076;2024-01-30T11:50:22;95.68;;;90.15;;
60973;SDS011;46846;51.528;5.076;2024-01-30T11:52:49;97.60;;;91.95;;
60973;SDS011;46846;51.528;5.076;2024-01-30T11:55:15;94.13;;;88.55;;
60973;SDS011;46846;51.528;5.076;2024-01-30T11:57:41;97.88;;;92.07;;
60973;SDS011;46846;51.528;5.076;2024-01-30T12:00:14;93.45;;;88.03;;
60973;SDS011;46846;51.528;5.076;2024-01-30T12:02:43;93.32;;;87.95;;
60973;SDS011;46846;51.528;5.076;2024-01-30T12:05:09;94.43;;;89.05;;
60973;SDS011;46846;51.528;5.076;2024-01-30T12:07:35;96.35;;;90.80;;
60973;SDS011;46846;51.528;5.076;2024-01-30T12:10:01;89.82;;;83.85;;
60973;SDS011;46846;51.528;5.076;2024-01-30T12:12:27;100.07;;;94.35;;
60973;SDS011;46846;51.528;5.076;2024-01-30T12:14:54;91.90;;;86.32;;
60973;SDS011;46846;51.528;5.076;2024-01-30T12:17:27;93.75;;;88.40;;
60973;SDS011;46846;51.528;5.076;2024-01-30T12:20:04;97.05;;;91.53;;
60973;SDS011;46846;51.528;5.076;2024-01-30T12:22:36;95.22;;;89.78;;
60973;SDS011;46846;51.528;5.076;2024-01-30T12:25:07;94.25;;;88.60;;
60973;SDS011;46846;51.528;5.076;2024-01-30T12:27:33;86.45;;;81.63;;
60973;SDS011;46846;51.528;5.076;2024-01-30T12:29:59;88.78;;;83.75;;
60973;SDS011;46846;51.528;5.076;2024-01-30T12:32:25;88.47;;;83.55;;
60973;SDS011;46846;51.528;5.076;2024-01-30T12:37:19;89.60;;;84.50;;
60973;SDS011;46846;51.528;5.076;2024-01-30T12:39:47;97.55;;;92.10;;
60973;SDS011;46846;51.528;5.076;2024-01-30T12:42:13;94.07;;;88.72;;
60973;SDS011;46846;51.528;5.076;2024-01-30T12:44:39;92.75;;;87.13;;
60973;SDS011;46846;51.528;5.076;2024-01-30T12:47:06;95.15;;;89.80;;
60973;SDS011;46846;51.528;5.076;2024-01-30T12:49:34;100.80;;;95.15;;
60973;SDS011;46846;51.528;5.076;2024-01-30T12:51:59;95.22;;;89.78;;
60973;SDS011;46846;51.528;5.076;2024-01-30T12:56:50;88.60;;;83.07;;
60973;SDS011;46846;51.528;5.076;2024-01-30T13:01:41;80.47;;;75.83;;
60973;SDS011;46846;51.528;5.076;2024-01-30T13:04:06;90.05;;;84.85;;
60973;SDS011;46846;51.528;5.076;2024-01-30T13:06:32;89.93;;;84.88;;
60973;SDS011;46846;51.528;5.076;2024-01-30T13:08:57;92.75;;;87.35;;
60973;SDS011;46846;51.528;5.076;2024-01-30T13:11:22;95.85;;;90.05;;
60973;SDS011;46846;51.528;5.076;2024-01-30T13:13:50;93.57;;;88.38;;
60973;SDS011;46846;51.528;5.076;2024-01-30T13:16:15;105.25;;;99.35;;
60973;SDS011;46846;51.528;5.076;2024-01-30T13:21:06;93.25;;;87.88;;
60973;SDS011;46846;51.528;5.076;2024-01-30T13:25:57;86.82;;;81.68;;
60973;SDS011;46846;51.528;5.076;2024-01-30T13:30:49;92.22;;;87.05;;
60973;SDS011;46846;51.528;5.076;2024-01-30T13:33:14;85.53;;;80.60;;
60973;SDS011;46846;51.528;5.076;2024-01-30T13:38:05;93.57;;;88.07;;
60973;SDS011;46846;51.528;5.076;2024-01-30T13:45:21;83.73;;;79.00;;
60973;SDS011;46846;51.528;5.076;2024-01-30T13:50:12;97.43;;;92.00;;
60973;SDS011;46846;51.528;5.076;2024-01-30T13:52:40;89.25;;;84.07;;
60973;SDS011;46846;51.528;5.076;2024-01-30T13:57:31;85.05;;;80.15;;
60973;SDS011;46846;51.528;5.076;2024-01-30T14:00:00;91.47;;;86.40;;
60973;SDS011;46846;51.528;5.076;2024-01-30T14:02:25;96.45;;;91.10;;
60973;SDS011;46846;51.528;5.076;2024-01-30T14:04:51;98.63;;;93.15;;
60973;SDS011;46846;51.528;5.076;2024-01-30T14:09:43;91.60;;;86.47;;
60973;SDS011;46846;51.528;5.076;2024-01-30T14:12:09;96.50;;;90.47;;
60973;SDS011;46846;51.528;5.076;2024-01-30T14:14:35;97.55;;;91.95;;
60973;SDS011;46846;51.528;5.076;2024-01-30T14:19:26;88.63;;;82.95;;
60973;SDS011;46846;51.528;5.076;2024-01-30T14:21:51;95.63;;;89.30;;
60973;SDS011;46846;51.528;5.076;2024-01-30T14:26:42;88.70;;;83.60;;
60973;SDS011;46846;51.528;5.076;2024-01-30T14:33:58;87.53;;;82.23;;
60973;SDS011;46846;51.528;5.076;2024-01-30T14:38:52;90.40;;;85.00;;
60973;SDS011;46846;51.528;5.076;2024-01-30T14:41:18;95.45;;;88.32;;
60973;SDS011;46846;51.528;5.076;2024-01-30T14:43:44;100.35;;;93.35;;
60973;SDS011;46846;51.528;5.076;2024-01-30T14:46:09;95.05;;;89.65;;
60973;SDS011;46846;51.528;5.076;2024-01-30T14:51:00;87.80;;;82.82;;
60973;SDS011;46846;51.528;5.076;2024-01-30T14:53:25;88.53;;;83.03;;
60973;SDS011;46846;51.528;5.076;2024-01-30T14:55:51;89.05;;;83.72;;
60973;SDS011;46846;51.528;5.076;2024-01-30T15:00:41;91.33;;;85.83;;
60973;SDS011;46846;51.528;5.076;2024-01-30T15:03:08;96.30;;;90.18;;
60973;SDS011;46846;51.528;5.076;2024-01-30T15:05:33;92.75;;;87.22;;
60973;SDS011;46846;51.528;5.076;2024-01-30T15:10:24;86.83;;;81.77;;
60973;SDS011;46846;51.528;5.076;2024-01-30T15:15:14;89.80;;;84.57;;
60973;SDS011;46846;51.528;5.076;2024-01-30T15:20:05;89.60;;;84.03;;
60973;SDS011;46846;51.528;5.076;2024-01-30T15:22:32;95.18;;;89.57;;
60973;SDS011;46846;51.528;5.076;2024-01-30T15:24:57;100.05;;;93.72;;
60973;SDS011;46846;51.528;5.076;2024-01-30T15:27:23;95.22;;;89.53;;
60973;SDS011;46846;51.528;5.076;2024-01-30T15:32:13;83.93;;;79.07;;
60973;SDS011;46846;51.528;5.076;2024-01-30T15:34:39;85.82;;;80.88;;
60973;SDS011;46846;51.528;5.076;2024-01-30T15:37:05;101.40;;;95.57;;
60973;SDS011;46846;51.528;5.076;2024-01-30T15:39:30;101.20;;;95.40;;
60973;SDS011;46846;51.528;5.076;2024-01-30T15:41:55;98.63;;;92.93;;
60973;SDS011;46846;51.528;5.076;2024-01-30T15:46:47;86.57;;;80.47;;
60973;SDS011;46846;51.528;5.076;2024-01-30T15:51:37;90.40;;;84.60;;
60973;SDS011;46846;51.528;5.076;2024-01-30T15:56:28;96.30;;;90.57;;
60973;SDS011;46846;51.528;5.076;2024-01-30T15:58:53;86.15;;;81.15;;
60973;SDS011;46846;51.528;5.076;2024-01-30T16:01:19;96.78;;;91.25;;
60973;SDS011;46846;51.528;5.076;2024-01-30T16:06:13;84.67;;;79.80;;
60973;SDS011;46846;51.528;5.076;2024-01-30T16:08:39;94.82;;;89.43;;
60973;SDS011;46846;51.528;5.076;2024-01-30T16:11:06;95.20;;;89.60;;
60973;SDS011;46846;51.528;5.076;2024-01-30T16:13:32;97.90;;;92.35;;
60973;SDS011;46846;51.528;5.076;2024-01-30T16:16:01;91.78;;;86.60;;
60973;SDS011;46846;51.528;5.076;2024-01-30T16:18:27;98.05;;;92.43;;
60973;SDS011;46846;51.528;5.076;2024-01-30T16:20:56;97.35;;;91.82;;
60973;SDS011;46846;51.528;5.076;2024-01-30T16:23:21;103.25;;;97.30;;
60973;SDS011;46846;51.528;5.076;2024-01-30T16:28:12;88.70;;;83.68;;
60973;SDS011;46846;51.528;5.076;2024-01-30T16:33:03;88.50;;;83.30;;
60973;SDS011;46846;51.528;5.076;2024-01-30T16:40:19;92.33;;;86.93;;